sensor_id;sensor_type;location;lat;lon;timestamp;pressure;altitude;pressure_sealevel;temperature;humidity
70127;BME280;57491;42.694;23.314;2023-04-10T00:00:49;95247.94;;;9.33;60.13
70127;BME280;57491;42.694;23.314;2023-04-10T00:03:22;95247.59;;;9.45;59.89
70127;BME280;57491;42.694;23.314;2023-04-10T00:05:49;95249.38;;;9.44;58.85
70127;BME280;57491;42.694;23.314;2023-04-10T00:08:19;95242.44;;;9.36;58.68
70127;BME280;57491;42.694;23.314;2023-04-10T00:10:47;95244.03;;;9.37;59.09
70127;BME280;57491;42.694;23.314;2023-04-10T00:13:15;95241.78;;;9.34;58.67
70127;BME280;57491;42.694;23.314;2023-04-10T00:15:42;95241.63;;;9.28;58.42
70127;BME280;57491;42.694;23.314;2023-04-10T00:18:10;95235.63;;;9.19;58.87
70127;BME280;57491;42.694;23.314;2023-04-10T00:20:37;95239.72;;;9.22;58.83
70127;BME280;57491;42.694;23.314;2023-04-10T00:23:04;95241.00;;;9.18;57.64
70127;BME280;57491;42.694;23.314;2023-04-10T00:25:31;95232.25;;;9.27;57.49
70127;BME280;57491;42.694;23.314;2023-04-10T00:28:00;95235.81;;;9.26;57.29
70127;BME280;57491;42.694;23.314;2023-04-10T00:30:27;95225.91;;;9.29;56.74
70127;BME280;57491;42.694;23.314;2023-04-10T00:32:54;95218.94;;;9.22;54.93
70127;BME280;57491;42.694;23.314;2023-04-10T00:35:21;95224.44;;;9.19;54.92
70127;BME280;57491;42.694;23.314;2023-04-10T00:37:48;95226.56;;;9.31;54.85
70127;BME280;57491;42.694;23.314;2023-04-10T00:40:15;95223.44;;;9.28;52.86
70127;BME280;57491;42.694;23.314;2023-04-10T00:42:42;95226.72;;;9.22;52.84
70127;BME280;57491;42.694;23.314;2023-04-10T00:45:11;95213.44;;;9.17;52.74
70127;BME280;57491;42.694;23.314;2023-04-10T00:47:38;95225.25;;;9.19;51.15
70127;BME280;57491;42.694;23.314;2023-04-10T00:50:06;95225.94;;;9.13;51.18
70127;BME280;57491;42.694;23.314;2023-04-10T00:52:34;95149.56;;;8.69;51.54
70127;BME280;57491;42.694;23.314;2023-04-10T00:55:01;95220.22;;;9.26;53.88
70127;BME280;57491;42.694;23.314;2023-04-10T00:57:29;95228.84;;;9.26;55.05
70127;BME280;57491;42.694;23.314;2023-04-10T00:59:56;95221.38;;;9.15;56.74
70127;BME280;57491;42.694;23.314;2023-04-10T01:02:24;95221.06;;;9.18;57.21
70127;BME280;57491;42.694;23.314;2023-04-10T01:04:52;95221.06;;;9.18;57.43
70127;BME280;57491;42.694;23.314;2023-04-10T01:07:27;95215.50;;;9.29;58.14
70127;BME280;57491;42.694;23.314;2023-04-10T01:10:04;95196.50;;;9.37;59.81
70127;BME280;57491;42.694;23.314;2023-04-10T01:12:44;95198.44;;;9.43;59.93
70127;BME280;57491;42.694;23.314;2023-04-10T01:15:17;95211.06;;;9.46;61.05
70127;BME280;57491;42.694;23.314;2023-04-10T01:17:51;95198.13;;;9.38;61.25
70127;BME280;57491;42.694;23.314;2023-04-10T01:20:21;95206.88;;;9.37;62.31
70127;BME280;57491;42.694;23.314;2023-04-10T01:23:07;95197.31;;;9.37;62.84
70127;BME280;57491;42.694;23.314;2023-04-10T01:25:40;95207.38;;;9.40;64.19
70127;BME280;57491;42.694;23.314;2023-04-10T01:28:39;95205.75;;;9.39;63.89
70127;BME280;57491;42.694;23.314;2023-04-10T01:31:07;95199.78;;;9.31;63.23
70127;BME280;57491;42.694;23.314;2023-04-10T01:33:39;95200.25;;;9.34;63.38
70127;BME280;57491;42.694;23.314;2023-04-10T01:36:11;95199.59;;;9.32;62.75
70127;BME280;57491;42.694;23.314;2023-04-10T01:38:41;95190.53;;;9.36;63.23
70127;BME280;57491;42.694;23.314;2023-04-10T01:41:09;95198.94;;;9.38;62.26
70127;BME280;57491;42.694;23.314;2023-04-10T01:43:36;95191.47;;;9.44;61.67
70127;BME280;57491;42.694;23.314;2023-04-10T01:46:07;95205.88;;;9.54;61.95
70127;BME280;57491;42.694;23.314;2023-04-10T01:48:35;95199.06;;;9.53;61.87
70127;BME280;57491;42.694;23.314;2023-04-10T01:51:05;95207.66;;;9.54;61.61
70127;BME280;57491;42.694;23.314;2023-04-10T01:53:34;95206.78;;;9.61;61.55
70127;BME280;57491;42.694;23.314;2023-04-10T01:56:02;95205.00;;;9.62;62.23
70127;BME280;57491;42.694;23.314;2023-04-10T01:58:29;95205.81;;;9.62;61.51
70127;BME280;57491;42.694;23.314;2023-04-10T02:00:56;95212.28;;;9.66;60.92
70127;BME280;57491;42.694;23.314;2023-04-10T02:03:24;95209.59;;;9.52;60.24
70127;BME280;57491;42.694;23.314;2023-04-10T02:05:57;95204.53;;;9.58;61.04
70127;BME280;57491;42.694;23.314;2023-04-10T02:08:33;95201.59;;;9.61;61.62
70127;BME280;57491;42.694;23.314;2023-04-10T02:11:06;95194.66;;;9.54;60.49
70127;BME280;57491;42.694;23.314;2023-04-10T02:13:38;95190.25;;;9.62;61.64
70127;BME280;57491;42.694;23.314;2023-04-10T02:16:07;95188.75;;;9.68;60.14
70127;BME280;57491;42.694;23.314;2023-04-10T02:18:35;95185.59;;;9.50;60.04
70127;BME280;57491;42.694;23.314;2023-04-10T02:21:06;95177.31;;;9.46;62.01
70127;BME280;57491;42.694;23.314;2023-04-10T02:23:34;95176.81;;;9.51;60.61
70127;BME280;57491;42.694;23.314;2023-04-10T02:26:04;95179.88;;;9.62;61.60
70127;BME280;57491;42.694;23.314;2023-04-10T02:28:32;95179.50;;;9.65;61.27
70127;BME280;57491;42.694;23.314;2023-04-10T02:30:59;95174.47;;;9.72;61.24
70127;BME280;57491;42.694;23.314;2023-04-10T02:33:26;95176.84;;;9.81;61.98
70127;BME280;57491;42.694;23.314;2023-04-10T02:35:54;95161.81;;;9.92;61.81
70127;BME280;57491;42.694;23.314;2023-04-10T02:38:21;95159.06;;;9.93;60.56
70127;BME280;57491;42.694;23.314;2023-04-10T02:40:48;95159.34;;;9.98;60.47
70127;BME280;57491;42.694;23.314;2023-04-10T02:43:15;95160.34;;;9.97;61.04
70127;BME280;57491;42.694;23.314;2023-04-10T02:45:43;95156.47;;;9.93;60.00
70127;BME280;57491;42.694;23.314;2023-04-10T02:48:10;95153.34;;;9.98;60.84
70127;BME280;57491;42.694;23.314;2023-04-10T02:50:37;95145.41;;;9.99;60.77
70127;BME280;57491;42.694;23.314;2023-04-10T02:53:06;95154.91;;;10.07;60.80
70127;BME280;57491;42.694;23.314;2023-04-10T02:55:33;95155.53;;;10.09;60.54
70127;BME280;57491;42.694;23.314;2023-04-10T02:58:00;95144.06;;;10.03;61.15
70127;BME280;57491;42.694;23.314;2023-04-10T03:00:27;95150.81;;;10.12;60.73
70127;BME280;57491;42.694;23.314;2023-04-10T03:02:54;95131.25;;;10.02;60.63
70127;BME280;57491;42.694;23.314;2023-04-10T03:05:21;95114.09;;;9.93;60.33
70127;BME280;57491;42.694;23.314;2023-04-10T03:07:48;95147.22;;;10.13;60.26
70127;BME280;57491;42.694;23.314;2023-04-10T03:10:16;95138.34;;;10.08;60.46
70127;BME280;57491;42.694;23.314;2023-04-10T03:12:43;95131.38;;;10.08;60.47
70127;BME280;57491;42.694;23.314;2023-04-10T03:15:10;95135.91;;;10.06;60.81
70127;BME280;57491;42.694;23.314;2023-04-10T03:17:37;95150.16;;;10.10;60.77
70127;BME280;57491;42.694;23.314;2023-04-10T03:20:05;95156.34;;;10.09;60.39
70127;BME280;57491;42.694;23.314;2023-04-10T03:22:33;95152.47;;;10.05;61.77
70127;BME280;57491;42.694;23.314;2023-04-10T03:25:00;95158.66;;;10.04;62.79
70127;BME280;57491;42.694;23.314;2023-04-10T03:27:28;95151.22;;;10.01;61.83
70127;BME280;57491;42.694;23.314;2023-04-10T03:29:56;95158.41;;;9.91;62.95
70127;BME280;57491;42.694;23.314;2023-04-10T03:32:23;95148.91;;;9.83;63.37
70127;BME280;57491;42.694;23.314;2023-04-10T03:34:52;95156.84;;;9.82;64.49
70127;BME280;57491;42.694;23.314;2023-04-10T03:37:19;95155.59;;;9.78;63.71
70127;BME280;57491;42.694;23.314;2023-04-10T03:39:46;95158.53;;;9.75;64.50
70127;BME280;57491;42.694;23.314;2023-04-10T03:42:13;95161.50;;;9.64;65.48
70127;BME280;57491;42.694;23.314;2023-04-10T03:44:42;95164.78;;;9.58;65.25
70127;BME280;57491;42.694;23.314;2023-04-10T03:47:09;95157.56;;;9.45;65.83
70127;BME280;57491;42.694;23.314;2023-04-10T03:49:36;95171.31;;;9.46;65.69
70127;BME280;57491;42.694;23.314;2023-04-10T03:52:03;95161.13;;;9.44;66.12
70127;BME280;57491;42.694;23.314;2023-04-10T03:54:31;95168.28;;;9.42;65.93
70127;BME280;57491;42.694;23.314;2023-04-10T03:56:58;95170.41;;;9.38;65.37
70127;BME280;57491;42.694;23.314;2023-04-10T03:59:26;95173.97;;;9.37;66.01
70127;BME280;57491;42.694;23.314;2023-04-10T04:01:54;95172.84;;;9.40;65.54
70127;BME280;57491;42.694;23.314;2023-04-10T04:04:22;95176.88;;;9.43;65.98
70127;BME280;57491;42.694;23.314;2023-04-10T04:06:50;95177.84;;;9.41;65.75
70127;BME280;57491;42.694;23.314;2023-04-10T04:09:18;95184.66;;;9.43;65.65
70127;BME280;57491;42.694;23.314;2023-04-10T04:11:45;95189.50;;;9.46;65.82
70127;BME280;57491;42.694;23.314;2023-04-10T04:14:12;95186.75;;;9.47;66.07
70127;BME280;57491;42.694;23.314;2023-04-10T04:16:39;95182.72;;;9.45;65.59
70127;BME280;57491;42.694;23.314;2023-04-10T04:19:07;95191.78;;;9.49;65.23
70127;BME280;57491;42.694;23.314;2023-04-10T04:21:34;95183.63;;;9.52;65.99
70127;BME280;57491;42.694;23.314;2023-04-10T04:24:01;95185.72;;;9.56;65.42
70127;BME280;57491;42.694;23.314;2023-04-10T04:26:29;95184.41;;;9.60;64.94
70127;BME280;57491;42.694;23.314;2023-04-10T04:28:56;95179.41;;;9.59;65.58
70127;BME280;57491;42.694;23.314;2023-04-10T04:31:23;95191.63;;;9.73;64.70
70127;BME280;57491;42.694;23.314;2023-04-10T04:33:56;95195.81;;;9.82;64.99
70127;BME280;57491;42.694;23.314;2023-04-10T04:36:25;95186.22;;;9.82;64.11
70127;BME280;57491;42.694;23.314;2023-04-10T04:38:52;95187.28;;;9.96;63.40
70127;BME280;57491;42.694;23.314;2023-04-10T04:41:19;95192.72;;;10.09;63.46
70127;BME280;57491;42.694;23.314;2023-04-10T04:43:46;95195.94;;;10.19;62.47
70127;BME280;57491;42.694;23.314;2023-04-10T04:46:14;95198.81;;;10.24;61.98
70127;BME280;57491;42.694;23.314;2023-04-10T04:48:41;95190.44;;;10.37;61.86
70127;BME280;57491;42.694;23.314;2023-04-10T04:51:08;95200.47;;;10.40;61.18
70127;BME280;57491;42.694;23.314;2023-04-10T04:53:36;95195.41;;;10.47;60.32
70127;BME280;57491;42.694;23.314;2023-04-10T04:56:04;95198.28;;;10.52;60.64
70127;BME280;57491;42.694;23.314;2023-04-10T04:58:31;95187.53;;;10.55;59.73
70127;BME280;57491;42.694;23.314;2023-04-10T05:00:59;95195.72;;;10.66;59.41
70127;BME280;57491;42.694;23.314;2023-04-10T05:03:26;95199.38;;;10.72;59.35
70127;BME280;57491;42.694;23.314;2023-04-10T05:05:54;95194.03;;;10.73;58.17
70127;BME280;57491;42.694;23.314;2023-04-10T05:08:21;95210.63;;;10.87;57.49
70127;BME280;57491;42.694;23.314;2023-04-10T05:10:49;95193.41;;;10.86;58.00
70127;BME280;57491;42.694;23.314;2023-04-10T05:13:17;95205.91;;;11.05;57.56
70127;BME280;57491;42.694;23.314;2023-04-10T05:15:44;95212.47;;;11.16;57.81
70127;BME280;57491;42.694;23.314;2023-04-10T05:18:11;95207.34;;;11.23;57.26
70127;BME280;57491;42.694;23.314;2023-04-10T05:20:38;95210.31;;;11.34;55.79
70127;BME280;57491;42.694;23.314;2023-04-10T05:23:06;95205.47;;;11.31;54.14
70127;BME280;57491;42.694;23.314;2023-04-10T05:25:34;95211.47;;;11.32;55.28
70127;BME280;57491;42.694;23.314;2023-04-10T05:28:02;95213.91;;;11.48;55.30
70127;BME280;57491;42.694;23.314;2023-04-10T05:30:29;95209.84;;;11.60;54.65
70127;BME280;57491;42.694;23.314;2023-04-10T05:32:56;95206.31;;;11.68;54.32
70127;BME280;57491;42.694;23.314;2023-04-10T05:35:23;95205.63;;;11.59;54.08
70127;BME280;57491;42.694;23.314;2023-04-10T05:37:50;95204.91;;;11.65;54.03
70127;BME280;57491;42.694;23.314;2023-04-10T05:40:19;95183.09;;;11.51;53.71
70127;BME280;57491;42.694;23.314;2023-04-10T05:42:46;95207.44;;;11.73;52.96
70127;BME280;57491;42.694;23.314;2023-04-10T05:45:14;95202.88;;;11.96;54.60
70127;BME280;57491;42.694;23.314;2023-04-10T05:47:41;95211.09;;;12.15;55.38
70127;BME280;57491;42.694;23.314;2023-04-10T05:50:09;95206.63;;;12.30;53.63
70127;BME280;57491;42.694;23.314;2023-04-10T05:52:36;95216.19;;;12.23;53.57
70127;BME280;57491;42.694;23.314;2023-04-10T05:55:04;95213.59;;;12.23;53.87
70127;BME280;57491;42.694;23.314;2023-04-10T05:57:31;95221.91;;;12.33;53.43
70127;BME280;57491;42.694;23.314;2023-04-10T05:59:58;95227.00;;;12.41;52.74
70127;BME280;57491;42.694;23.314;2023-04-10T06:02:27;95218.44;;;12.47;52.97
70127;BME280;57491;42.694;23.314;2023-04-10T06:04:54;95208.22;;;12.52;52.15
70127;BME280;57491;42.694;23.314;2023-04-10T06:07:21;95223.88;;;12.73;51.03
70127;BME280;57491;42.694;23.314;2023-04-10T06:09:48;95224.31;;;12.77;51.30
70127;BME280;57491;42.694;23.314;2023-04-10T06:12:16;95218.13;;;13.06;51.20
70127;BME280;57491;42.694;23.314;2023-04-10T06:14:43;95223.88;;;13.22;50.12
70127;BME280;57491;42.694;23.314;2023-04-10T06:17:10;95218.69;;;13.29;49.48
70127;BME280;57491;42.694;23.314;2023-04-10T06:19:38;95208.56;;;13.19;49.79
70127;BME280;57491;42.694;23.314;2023-04-10T06:22:05;95210.66;;;13.30;50.50
70127;BME280;57491;42.694;23.314;2023-04-10T06:24:32;95215.53;;;13.40;49.29
70127;BME280;57491;42.694;23.314;2023-04-10T06:27:00;95208.31;;;13.42;50.23
70127;BME280;57491;42.694;23.314;2023-04-10T06:29:28;95203.19;;;13.55;49.15
70127;BME280;57491;42.694;23.314;2023-04-10T06:31:55;95208.41;;;13.55;48.54
70127;BME280;57491;42.694;23.314;2023-04-10T06:34:22;95210.38;;;13.53;48.13
70127;BME280;57491;42.694;23.314;2023-04-10T06:36:56;95215.16;;;13.43;46.70
70127;BME280;57491;42.694;23.314;2023-04-10T06:39:23;95209.47;;;13.33;47.26
70127;BME280;57491;42.694;23.314;2023-04-10T06:41:50;95211.41;;;13.18;47.50
70127;BME280;57491;42.694;23.314;2023-04-10T06:44:19;95221.06;;;13.24;48.37
70127;BME280;57491;42.694;23.314;2023-04-10T06:46:46;95215.06;;;13.23;47.87
70127;BME280;57491;42.694;23.314;2023-04-10T06:49:13;95188.72;;;12.97;47.17
70127;BME280;57491;42.694;23.314;2023-04-10T06:51:40;95219.81;;;13.13;48.44
70127;BME280;57491;42.694;23.314;2023-04-10T06:54:08;95208.09;;;13.09;47.92
70127;BME280;57491;42.694;23.314;2023-04-10T06:56:35;95226.66;;;13.21;48.53
70127;BME280;57491;42.694;23.314;2023-04-10T06:59:02;95206.06;;;13.05;47.72
70127;BME280;57491;42.694;23.314;2023-04-10T07:01:29;95230.16;;;13.07;47.85
70127;BME280;57491;42.694;23.314;2023-04-10T07:03:57;95226.63;;;12.93;47.95
70127;BME280;57491;42.694;23.314;2023-04-10T07:06:26;95225.38;;;12.82;47.69
70127;BME280;57491;42.694;23.314;2023-04-10T07:08:53;95225.47;;;12.46;48.03
70127;BME280;57491;42.694;23.314;2023-04-10T07:11:24;95224.31;;;12.34;48.35
70127;BME280;57491;42.694;23.314;2023-04-10T07:13:54;95228.16;;;12.38;49.32
70127;BME280;57491;42.694;23.314;2023-04-10T07:16:23;95225.06;;;12.49;48.96
70127;BME280;57491;42.694;23.314;2023-04-10T07:18:50;95214.47;;;12.51;48.98
70127;BME280;57491;42.694;23.314;2023-04-10T07:21:18;95223.69;;;12.75;48.84
70127;BME280;57491;42.694;23.314;2023-04-10T07:23:45;95220.81;;;12.91;49.19
70127;BME280;57491;42.694;23.314;2023-04-10T07:26:12;95218.25;;;12.97;47.32
70127;BME280;57491;42.694;23.314;2023-04-10T07:28:40;95223.22;;;12.92;46.67
70127;BME280;57491;42.694;23.314;2023-04-10T07:31:10;95217.56;;;12.40;46.52
70127;BME280;57491;42.694;23.314;2023-04-10T07:33:38;95231.97;;;12.36;48.31
70127;BME280;57491;42.694;23.314;2023-04-10T07:36:06;95227.72;;;12.35;48.00
70127;BME280;57491;42.694;23.314;2023-04-10T07:38:34;95232.25;;;12.47;48.63
70127;BME280;57491;42.694;23.314;2023-04-10T07:41:01;95225.94;;;12.35;48.23
70127;BME280;57491;42.694;23.314;2023-04-10T07:43:28;95226.13;;;12.34;47.71
70127;BME280;57491;42.694;23.314;2023-04-10T07:45:56;95218.16;;;12.21;48.27
70127;BME280;57491;42.694;23.314;2023-04-10T07:48:23;95228.75;;;12.55;48.06
70127;BME280;57491;42.694;23.314;2023-04-10T07:50:51;95230.31;;;12.98;48.27
70127;BME280;57491;42.694;23.314;2023-04-10T07:53:18;95227.63;;;13.41;45.54
70127;BME280;57491;42.694;23.314;2023-04-10T07:55:45;95225.34;;;13.72;45.55
70127;BME280;57491;42.694;23.314;2023-04-10T07:58:13;95223.22;;;13.89;44.55
70127;BME280;57491;42.694;23.314;2023-04-10T08:00:40;95226.28;;;14.06;44.03
70127;BME280;57491;42.694;23.314;2023-04-10T08:03:10;95225.50;;;14.12;44.11
70127;BME280;57491;42.694;23.314;2023-04-10T08:05:38;95225.41;;;14.46;43.47
70127;BME280;57491;42.694;23.314;2023-04-10T08:08:05;95190.41;;;14.41;43.04
70127;BME280;57491;42.694;23.314;2023-04-10T08:10:32;95221.38;;;14.50;42.91
70127;BME280;57491;42.694;23.314;2023-04-10T08:13:02;95220.19;;;14.40;43.42
70127;BME280;57491;42.694;23.314;2023-04-10T08:15:29;95218.66;;;14.11;43.05
70127;BME280;57491;42.694;23.314;2023-04-10T08:17:56;95222.88;;;14.12;44.25
70127;BME280;57491;42.694;23.314;2023-04-10T08:20:25;95223.09;;;14.17;44.06
70127;BME280;57491;42.694;23.314;2023-04-10T08:22:53;95212.63;;;14.04;43.85
70127;BME280;57491;42.694;23.314;2023-04-10T08:25:20;95209.19;;;14.10;43.23
70127;BME280;57491;42.694;23.314;2023-04-10T08:27:49;95211.84;;;14.23;43.33
70127;BME280;57491;42.694;23.314;2023-04-10T08:30:16;95204.22;;;14.21;44.05
70127;BME280;57491;42.694;23.314;2023-04-10T08:32:43;95218.00;;;14.50;43.75
70127;BME280;57491;42.694;23.314;2023-04-10T08:35:10;95216.78;;;14.65;42.83
70127;BME280;57491;42.694;23.314;2023-04-10T08:37:39;95209.91;;;14.51;43.44
70127;BME280;57491;42.694;23.314;2023-04-10T08:40:07;95215.75;;;14.47;42.83
70127;BME280;57491;42.694;23.314;2023-04-10T08:42:34;95216.56;;;14.54;42.88
70127;BME280;57491;42.694;23.314;2023-04-10T08:45:02;95206.31;;;14.59;42.86
70127;BME280;57491;42.694;23.314;2023-04-10T08:47:35;95216.38;;;14.68;42.43
70127;BME280;57491;42.694;23.314;2023-04-10T08:50:05;95208.63;;;14.21;42.61
70127;BME280;57491;42.694;23.314;2023-04-10T08:52:33;95203.09;;;13.90;43.39
70127;BME280;57491;42.694;23.314;2023-04-10T08:55:08;95201.19;;;14.18;42.78
70127;BME280;57491;42.694;23.314;2023-04-10T08:57:37;95211.47;;;14.32;42.22
70127;BME280;57491;42.694;23.314;2023-04-10T09:00:05;95208.19;;;14.11;43.03
70127;BME280;57491;42.694;23.314;2023-04-10T09:02:33;95207.78;;;14.14;42.55
70127;BME280;57491;42.694;23.314;2023-04-10T09:05:03;95207.25;;;13.71;43.98
70127;BME280;57491;42.694;23.314;2023-04-10T09:07:30;95198.38;;;13.65;44.17
70127;BME280;57491;42.694;23.314;2023-04-10T09:09:57;95208.69;;;13.39;43.32
70127;BME280;57491;42.694;23.314;2023-04-10T09:12:26;95198.81;;;13.07;43.59
70127;BME280;57491;42.694;23.314;2023-04-10T09:14:55;95191.56;;;13.30;43.30
70127;BME280;57491;42.694;23.314;2023-04-10T09:17:24;95195.84;;;13.85;43.23
70127;BME280;57491;42.694;23.314;2023-04-10T09:19:52;95192.66;;;13.90;42.04
70127;BME280;57491;42.694;23.314;2023-04-10T09:22:29;95180.78;;;13.87;42.02
70127;BME280;57491;42.694;23.314;2023-04-10T09:25:18;95186.00;;;13.87;42.11
70127;BME280;57491;42.694;23.314;2023-04-10T09:28:00;95182.88;;;14.05;41.77
70127;BME280;57491;42.694;23.314;2023-04-10T09:30:33;95182.34;;;13.68;42.11
70127;BME280;57491;42.694;23.314;2023-04-10T09:33:01;95177.44;;;13.52;42.52
70127;BME280;57491;42.694;23.314;2023-04-10T09:35:35;95181.88;;;13.58;42.29
70127;BME280;57491;42.694;23.314;2023-04-10T09:38:13;95173.88;;;13.60;42.64
70127;BME280;57491;42.694;23.314;2023-04-10T09:40:41;95186.19;;;13.79;42.11
70127;BME280;57491;42.694;23.314;2023-04-10T09:43:23;95180.81;;;13.94;41.87
70127;BME280;57491;42.694;23.314;2023-04-10T09:45:52;95179.38;;;13.84;42.06
70127;BME280;57491;42.694;23.314;2023-04-10T09:48:20;95175.19;;;13.97;41.76
70127;BME280;57491;42.694;23.314;2023-04-10T09:50:47;95185.28;;;14.13;41.13
70127;BME280;57491;42.694;23.314;2023-04-10T09:53:15;95179.97;;;13.80;41.18
70127;BME280;57491;42.694;23.314;2023-04-10T09:55:44;95178.06;;;13.54;41.04
70127;BME280;57491;42.694;23.314;2023-04-10T09:58:13;95187.41;;;13.35;41.43
70127;BME280;57491;42.694;23.314;2023-04-10T10:00:42;95173.81;;;13.53;40.77
70127;BME280;57491;42.694;23.314;2023-04-10T10:03:11;95172.34;;;13.92;41.04
70127;BME280;57491;42.694;23.314;2023-04-10T10:05:41;95168.84;;;14.39;39.82
70127;BME280;57491;42.694;23.314;2023-04-10T10:08:10;95166.84;;;14.87;38.53
70127;BME280;57491;42.694;23.314;2023-04-10T10:10:43;95167.94;;;15.56;37.41
70127;BME280;57491;42.694;23.314;2023-04-10T10:13:15;95172.44;;;15.94;36.64
70127;BME280;57491;42.694;23.314;2023-04-10T10:15:48;95159.25;;;16.07;36.35
70127;BME280;57491;42.694;23.314;2023-04-10T10:18:20;95157.38;;;16.77;35.61
70127;BME280;57491;42.694;23.314;2023-04-10T10:20:49;95141.41;;;17.21;34.81
70127;BME280;57491;42.694;23.314;2023-04-10T10:23:16;95150.66;;;17.06;34.09
70127;BME280;57491;42.694;23.314;2023-04-10T10:25:45;95150.03;;;16.54;34.83
70127;BME280;57491;42.694;23.314;2023-04-10T10:28:13;95151.03;;;16.28;35.56
70127;BME280;57491;42.694;23.314;2023-04-10T10:30:41;95131.88;;;15.90;36.01
70127;BME280;57491;42.694;23.314;2023-04-10T10:33:10;95144.81;;;15.91;37.77
70127;BME280;57491;42.694;23.314;2023-04-10T10:35:38;95146.06;;;15.82;36.64
70127;BME280;57491;42.694;23.314;2023-04-10T10:38:06;95142.59;;;15.88;36.62
70127;BME280;57491;42.694;23.314;2023-04-10T10:40:40;95141.75;;;15.43;37.63
70127;BME280;57491;42.694;23.314;2023-04-10T10:43:13;95137.69;;;15.54;36.85
70127;BME280;57491;42.694;23.314;2023-04-10T10:45:47;95134.38;;;15.78;37.71
70127;BME280;57491;42.694;23.314;2023-04-10T10:48:18;95132.03;;;16.01;37.07
70127;BME280;57491;42.694;23.314;2023-04-10T10:50:53;95131.31;;;16.19;36.60
70127;BME280;57491;42.694;23.314;2023-04-10T10:53:32;95130.00;;;16.35;37.66
70127;BME280;57491;42.694;23.314;2023-04-10T10:56:03;95128.88;;;16.24;35.91
70127;BME280;57491;42.694;23.314;2023-04-10T10:58:52;95100.28;;;15.85;37.34
70127;BME280;57491;42.694;23.314;2023-04-10T11:01:20;95121.75;;;16.00;36.38
70127;BME280;57491;42.694;23.314;2023-04-10T11:03:49;95115.94;;;15.98;35.53
70127;BME280;57491;42.694;23.314;2023-04-10T11:06:17;95104.16;;;16.38;34.53
70127;BME280;57491;42.694;23.314;2023-04-10T11:08:45;95102.88;;;16.97;34.25
70127;BME280;57491;42.694;23.314;2023-04-10T11:11:17;95094.88;;;18.06;32.88
70127;BME280;57491;42.694;23.314;2023-04-10T11:14:12;95091.53;;;19.57;30.65
70127;BME280;57491;42.694;23.314;2023-04-10T11:16:45;95091.91;;;20.67;28.49
70127;BME280;57491;42.694;23.314;2023-04-10T11:19:14;95091.13;;;21.60;27.73
70127;BME280;57491;42.694;23.314;2023-04-10T11:22:04;95076.81;;;21.40;29.12
70127;BME280;57491;42.694;23.314;2023-04-10T11:24:52;95075.91;;;21.12;29.66
70127;BME280;57491;42.694;23.314;2023-04-10T11:27:38;95080.63;;;20.38;29.09
70127;BME280;57491;42.694;23.314;2023-04-10T11:30:27;95074.72;;;19.75;29.86
70127;BME280;57491;42.694;23.314;2023-04-10T11:32:54;95084.69;;;19.09;32.40
70127;BME280;57491;42.694;23.314;2023-04-10T11:35:24;95082.88;;;18.10;34.37
70127;BME280;57491;42.694;23.314;2023-04-10T11:37:51;95091.03;;;17.61;33.49
70127;BME280;57491;42.694;23.314;2023-04-10T11:40:33;95084.75;;;17.25;34.53
70127;BME280;57491;42.694;23.314;2023-04-10T11:43:11;95088.53;;;17.29;35.51
70127;BME280;57491;42.694;23.314;2023-04-10T11:45:38;95079.72;;;17.60;34.23
70127;BME280;57491;42.694;23.314;2023-04-10T11:48:06;95072.44;;;18.45;32.46
70127;BME280;57491;42.694;23.314;2023-04-10T11:50:34;95085.94;;;19.18;31.68
70127;BME280;57491;42.694;23.314;2023-04-10T11:53:16;95071.41;;;19.96;30.49
70127;BME280;57491;42.694;23.314;2023-04-10T11:55:43;95078.06;;;20.43;29.77
70127;BME280;57491;42.694;23.314;2023-04-10T11:58:23;95086.09;;;20.20;30.57
70127;BME280;57491;42.694;23.314;2023-04-10T12:00:58;95075.19;;;19.72;30.80
70127;BME280;57491;42.694;23.314;2023-04-10T12:03:36;95073.22;;;19.27;32.37
70127;BME280;57491;42.694;23.314;2023-04-10T12:06:08;95057.91;;;18.89;33.56
70127;BME280;57491;42.694;23.314;2023-04-10T12:08:37;95063.19;;;18.54;33.37
70127;BME280;57491;42.694;23.314;2023-04-10T12:11:05;95068.59;;;18.18;33.17
70127;BME280;57491;42.694;23.314;2023-04-10T12:13:33;95066.00;;;17.88;34.14
70127;BME280;57491;42.694;23.314;2023-04-10T12:16:02;95072.75;;;17.66;34.70
70127;BME280;57491;42.694;23.314;2023-04-10T12:18:29;95076.06;;;17.43;36.17
70127;BME280;57491;42.694;23.314;2023-04-10T12:20:57;95108.72;;;16.74;37.38
70127;BME280;57491;42.694;23.314;2023-04-10T12:23:27;95093.75;;;15.49;47.75
70127;BME280;57491;42.694;23.314;2023-04-10T12:26:06;95115.47;;;15.12;49.46
70127;BME280;57491;42.694;23.314;2023-04-10T12:28:34;95113.50;;;14.81;48.57
70127;BME280;57491;42.694;23.314;2023-04-10T12:31:03;95103.28;;;14.53;47.31
70127;BME280;57491;42.694;23.314;2023-04-10T12:33:30;95108.03;;;13.97;51.39
70127;BME280;57491;42.694;23.314;2023-04-10T12:35:57;95110.41;;;13.79;53.95
70127;BME280;57491;42.694;23.314;2023-04-10T12:38:40;95089.28;;;13.13;53.29
70127;BME280;57491;42.694;23.314;2023-04-10T12:41:08;95122.31;;;13.06;54.55
70127;BME280;57491;42.694;23.314;2023-04-10T12:43:38;95121.13;;;12.74;56.68
70127;BME280;57491;42.694;23.314;2023-04-10T12:46:06;95096.53;;;12.56;57.80
70127;BME280;57491;42.694;23.314;2023-04-10T12:48:34;95112.63;;;12.59;56.01
70127;BME280;57491;42.694;23.314;2023-04-10T12:51:01;95088.19;;;12.67;54.98
70127;BME280;57491;42.694;23.314;2023-04-10T12:53:28;95086.06;;;12.83;52.42
70127;BME280;57491;42.694;23.314;2023-04-10T12:55:58;95082.34;;;12.99;54.10
70127;BME280;57491;42.694;23.314;2023-04-10T12:58:26;95087.13;;;13.23;53.18
70127;BME280;57491;42.694;23.314;2023-04-10T13:00:54;95078.38;;;13.57;53.37
70127;BME280;57491;42.694;23.314;2023-04-10T13:03:21;95081.09;;;13.90;54.37